Time;durP1;ratioP1;P1;durP2;ratioP2;P2;SDS_P1;SDS_P2;PMS_P1;PMS_P2;Temp;Humidity;BMP_temperature;BMP_pressure;BME280_temperature;BME280_humidity;BME280_pressure;Samples;Min_cycle;Max_cycle;Signal;HPM_P1;HPM_P2
2023/10/06 00:04:22;;;;;;;60.30;55.00;;;;;;;11.43;100.00;101334.49;223683;1264;140560;-84
2023/10/06 00:29:01;;;;;;;50.00;45.70;;;;;;;11.39;100.00;101351.89;224121;1264;139053;-85
2023/10/06 00:34:44;;;;;;;40.70;35.10;;;;;;;11.39;100.00;101350.39;223633;1263;140030;-85
2023/10/06 00:40:51;;;;;;;38.00;31.40;;;;;;;11.39;100.00;101352.90;223722;1263;140474;-85
2023/10/06 00:46:49;;;;;;;32.20;28.20;;;;;;;11.37;100.00;101353.48;224260;1263;139050;-84
2023/10/06 00:58:51;;;;;;;34.40;29.60;;;;;;;11.36;100.00;101341.09;224327;1263;139724;-85
2023/10/06 01:04:53;;;;;;;33.50;29.10;;;;;;;11.34;100.00;101343.34;223740;1263;140541;-85
2023/10/06 01:10:54;;;;;;;35.80;32.00;;;;;;;11.29;100.00;101349.92;223749;1265;140642;-84
2023/10/06 01:29:06;;;;;;;31.20;19.10;;;;;;;11.21;100.00;101362.48;224083;1263;139418;-85
2023/10/06 01:35:12;;;;;;;30.00;25.00;;;;;;;11.18;100.00;101361.40;223840;1263;140349;-84
2023/10/06 01:41:34;;;;;;;37.40;29.00;;;;;;;11.20;100.00;101354.35;223762;1263;140479;-85
2023/10/06 01:47:35;;;;;;;33.70;26.50;;;;;;;11.20;100.00;101348.52;224131;1263;139327;-85
2023/10/06 01:53:40;;;;;;;35.30;29.70;;;;;;;11.19;100.00;101356.13;223662;1263;140574;-85
2023/10/06 01:59:20;;;;;;;35.80;26.50;;;;;;;11.17;100.00;101358.69;224178;1263;139093;-85
2023/10/06 02:05:22;;;;;;;32.30;23.90;;;;;;;11.15;100.00;101364.31;224270;1263;247346;-85
2023/10/06 02:11:28;;;;;;;29.50;22.90;;;;;;;11.15;100.00;101364.55;223697;1263;140309;-86
2023/10/06 02:35:31;;;;;;;34.00;24.30;;;;;;;11.14;100.00;101352.81;224068;1263;384029;-85
2023/10/06 02:53:30;;;;;;;;;;;;;;;;;;;;;
2023/10/06 03:05:49;;;;;;;33.40;23.90;;;;;;;11.04;100.00;101353.10;224000;1263;387723;-86
2023/10/06 03:42:27;;;;;;;25.50;13.20;;;;;;;10.66;100.00;101391.50;223773;1264;140845;-85
2023/10/06 03:48:28;;;;;;;23.30;12.60;;;;;;;10.61;100.00;101374.86;224261;1263;96211;-85
2023/10/06 03:54:02;;;;;;;24.20;13.80;;;;;;;10.64;100.00;101386.95;223695;1263;139925;-85
2023/10/06 04:00:04;;;;;;;27.70;16.70;;;;;;;10.61;100.00;101384.52;224209;1263;95994;-85
2023/10/06 04:06:04;;;;;;;30.20;17.40;;;;;;;10.59;100.00;101391.31;224107;1263;139000;-85
2023/10/06 04:12:06;;;;;;;44.50;20.90;;;;;;;10.53;100.00;101385.10;223622;1263;140714;-85
2023/10/06 04:18:09;;;;;;;43.90;26.00;;;;;;;10.51;100.00;101383.45;224185;1263;139474;-85
2023/10/06 04:24:06;;;;;;;36.50;20.40;;;;;;;10.50;100.00;101386.66;223696;1263;140048;-85
2023/10/06 04:42:10;;;;;;;21.90;11.70;;;;;;;10.38;100.00;101381.23;223769;1263;140464;-86
2023/10/06 04:48:12;;;;;;;35.60;27.80;;;;;;;10.44;100.00;101387.67;224216;1267;139774;-86
2023/10/06 04:54:13;;;;;;;35.80;17.00;;;;;;;10.42;100.00;101393.29;223688;1263;140249;-86
2023/10/06 05:00:14;;;;;;;27.20;12.80;;;;;;;10.34;100.00;101399.84;223558;1263;141346;-86
2023/10/06 05:06:21;;;;;;;34.90;14.70;;;;;;;10.31;100.00;101403.13;224135;1263;140035;-85
2023/10/06 05:12:23;;;;;;;27.10;13.60;;;;;;;10.24;100.00;101399.40;223714;1263;140285;-86
2023/10/06 05:18:24;;;;;;;28.90;15.00;;;;;;;10.25;100.00;101409.95;224083;1263;140574;-86
2023/10/06 05:24:23;;;;;;;43.20;19.10;;;;;;;10.25;100.00;101413.11;223777;1263;140370;-86
2023/10/06 05:30:25;;;;;;;43.60;20.10;;;;;;;10.25;100.00;101420.02;223672;1263;140298;-85
2023/10/06 05:36:26;;;;;;;47.60;20.40;;;;;;;10.23;100.00;101417.93;224210;1264;138906;-85
2023/10/06 05:42:33;;;;;;;45.70;19.20;;;;;;;10.27;100.00;101415.35;223566;1263;140143;-86
2023/10/06 05:48:34;;;;;;;35.30;17.60;;;;;;;10.27;100.00;101410.33;224237;1263;96010;-85
2023/10/06 05:54:33;;;;;;;;;;;;;;;;;;;;;
2023/10/06 06:00:35;;;;;;;28.10;15.30;;;;;;;10.36;100.00;101418.28;223552;1263;140190;-87
2023/10/06 06:06:56;;;;;;;32.20;20.60;;;;;;;10.42;100.00;101422.70;224103;1263;139936;-87
2023/10/06 06:12:39;;;;;;;38.30;31.10;;;;;;;10.43;100.00;101419.26;223624;1263;140841;-87
2023/10/06 06:18:42;;;;;;;45.30;36.50;;;;;;;10.51;100.00;101425.70;224327;1263;95803;-86
2023/10/06 06:24:40;;;;;;;;;;;;;;;;;;;;;
2023/10/06 06:30:34;;;;;;;;;;;;;;;;;;;;;
2023/10/06 06:36:45;;;;;;;31.20;17.60;;;;;;;10.68;100.00;101425.52;224054;1263;139496;-91
2023/10/06 06:48:46;;;;;;;39.50;30.80;;;;;;;10.84;100.00;101428.77;224216;1263;138903;-89
2023/10/06 07:06:52;;;;;;;40.10;34.40;;;;;;;11.14;100.00;101417.51;224135;1264;95961;-90
2023/10/06 07:12:52;;;;;;;57.50;50.40;;;;;;;11.23;100.00;101414.10;223546;1267;140269;-90
2023/10/06 07:18:54;;;;;;;75.00;68.30;;;;;;;11.34;100.00;101415.38;224104;1267;139969;-89
2023/10/06 07:24:56;;;;;;;47.50;42.00;;;;;;;11.44;100.00;101418.15;223498;1263;140159;-89
2023/10/06 07:36:55;;;;;;;;;;;;;;;;;;;;;
2023/10/06 07:42:57;;;;;;;71.30;63.20;;;;;;;11.73;100.00;101413.39;223572;1267;140271;-90
2023/10/06 07:48:51;;;;;;;65.90;54.60;;;;;;;11.83;100.00;101415.05;224170;1264;138946;-89
2023/10/06 07:54:52;;;;;;;100.80;91.50;;;;;;;11.96;100.00;101414.23;223586;1264;140284;-88
2023/10/06 08:00:53;;;;;;;105.10;95.90;;;;;;;12.07;100.00;101409.17;223432;1263;140408;-90
2023/10/06 08:06:50;;;;;;;118.90;109.20;;;;;;;12.18;100.00;101405.61;224165;1264;139214;-88
2023/10/06 08:12:51;;;;;;;79.30;67.60;;;;;;;12.32;100.00;101394.95;223540;1263;140526;-89
2023/10/06 08:18:53;;;;;;;224.40;205.70;;;;;;;12.46;100.00;101386.13;224067;1265;139504;-89
2023/10/06 08:24:53;;;;;;;235.10;194.40;;;;;;;12.57;100.00;101387.83;223634;1263;141096;-88
2023/10/06 08:30:54;;;;;;;181.50;167.50;;;;;;;12.65;100.00;101387.66;219483;1263;5386126;-88
2023/10/06 08:36:49;;;;;;;;;;;;;;;;;;;;;
2023/10/06 08:42:48;;;;;;;705.50;508.20;;;;;;;12.88;100.00;101361.55;223618;1263;140428;-89
2023/10/06 08:48:49;;;;;;;322.40;293.10;;;;;;;13.01;100.00;101363.98;224242;1264;139819;-89
2023/10/06 08:54:48;;;;;;;635.00;500.10;;;;;;;13.15;100.00;101354.19;223666;1263;140485;-89
2023/10/06 09:00:49;;;;;;;395.40;357.40;;;;;;;13.27;100.00;101347.81;223620;1263;140890;-89
2023/10/06 09:12:46;;;;;;;670.10;561.60;;;;;;;13.56;100.00;101365.92;223667;1263;140691;-89
2023/10/06 09:19:01;;;;;;;619.20;509.60;;;;;;;13.66;100.00;101359.28;224240;1264;139516;-87
2023/10/06 09:25:00;;;;;;;;;;;;;;;;;;;;;
2023/10/06 09:37:07;;;;;;;686.70;542.50;;;;;;;13.86;100.00;101333.52;224142;1264;139944;-89
2023/10/06 09:43:04;;;;;;;;;;;;;;;;;;;;;
2023/10/06 09:49:11;;;;;;;667.90;537.60;;;;;;;14.06;100.00;101340.23;224181;1264;107592;-90
2023/10/06 10:01:12;;;;;;;728.00;567.60;;;;;;;14.21;100.00;101332.94;223736;1264;140537;-89
2023/10/06 10:07:02;;;;;;;;;;;;;;;;;;;;;
2023/10/06 10:13:08;;;;;;;;;;;;;;;;;;;;;
2023/10/06 10:19:28;;;;;;;845.10;636.10;;;;;;;14.43;100.00;101302.21;224217;1264;139766;-89
2023/10/06 10:25:19;;;;;;;824.50;640.60;;;;;;;14.54;100.00;101272.96;224073;1263;389273;-88
2023/10/06 10:37:34;;;;;;;;;;;;;;;;;;;;;
2023/10/06 10:43:48;;;;;;;967.40;641.80;;;;;;;15.07;100.00;101255.13;223833;1263;140564;-90
2023/10/06 10:49:48;;;;;;;668.20;532.00;;;;;;;15.19;100.00;101255.44;224307;1263;95793;-89
2023/10/06 10:55:49;;;;;;;1015.50;690.00;;;;;;;15.33;100.00;101250.61;224301;1263;96050;-89
2023/10/06 11:01:54;;;;;;;;;;;;;;;;;;;;;
2023/10/06 11:07:45;;;;;;;;;;;;;;;;;;;;;
2023/10/06 11:13:53;;;;;;;1072.80;718.00;;;;;;;15.96;100.00;101232.84;223631;1263;141026;-89
2023/10/06 11:19:48;;;;;;;1275.30;774.20;;;;;;;16.16;100.00;101216.14;224212;1263;139719;-89
2023/10/06 11:25:44;;;;;;;1175.10;714.00;;;;;;;16.33;100.00;101198.45;224109;1263;367606;-91
2023/10/06 11:31:50;;;;;;;1105.00;710.20;;;;;;;16.54;100.00;101186.15;223745;1263;141433;-90
2023/10/06 11:37:44;;;;;;;625.20;513.30;;;;;;;16.76;100.00;101171.27;224171;1263;139443;-88
2023/10/06 11:43:51;;;;;;;679.00;594.30;;;;;;;16.90;100.00;101175.68;223676;1263;140782;-89
2023/10/06 11:49:18;;;;;;;579.40;506.30;;;;;;;16.95;100.00;101167.33;224297;1263;139401;-90
2023/10/06 11:55:20;;;;;;;543.10;484.90;;;;;;;17.03;100.00;101159.66;224202;1263;140586;-89
2023/10/06 12:01:36;;;;;;;567.90;511.30;;;;;;;17.04;100.00;101153.63;223718;1263;141920;-90
2023/10/06 12:07:41;;;;;;;967.60;524.90;;;;;;;17.07;100.00;101142.64;224421;1264;139753;-86
2023/10/06 12:13:39;;;;;;;;;;;;;;;;;;;;;
2023/10/06 12:19:32;;;;;;;689.40;577.50;;;;;;;17.12;100.00;101143.26;224253;1264;139850;-87
2023/10/06 12:25:22;;;;;;;745.10;559.30;;;;;;;17.23;100.00;101149.73;224164;1263;139658;-88
2023/10/06 12:31:02;;;;;;;;;;;;;;;;;;;;;
2023/10/06 12:37:03;;;;;;;770.30;646.80;;;;;;;17.30;100.00;101138.41;224308;1263;139446;-89
2023/10/06 12:43:03;;;;;;;569.40;507.80;;;;;;;17.34;100.00;101122.17;223676;1263;142003;-88
2023/10/06 12:49:01;;;;;;;828.60;553.90;;;;;;;17.34;100.00;101121.85;224311;1263;139431;-87
2023/10/06 13:01:07;;;;;;;963.30;665.20;;;;;;;17.33;100.00;101110.25;223697;1263;140803;-88
2023/10/06 13:07:11;;;;;;;1751.50;850.50;;;;;;;17.27;100.00;101102.33;224172;1263;139389;-89
2023/10/06 13:12:54;;;;;;;1216.10;758.00;;;;;;;17.17;100.00;101079.09;223716;1263;140990;-88
2023/10/06 13:18:44;;;;;;;1258.10;707.10;;;;;;;17.04;100.00;101063.50;224173;1263;140396;-89
2023/10/06 13:24:45;;;;;;;1190.60;744.90;;;;;;;16.92;100.00;101044.91;223772;1263;140704;-89
2023/10/06 13:30:46;;;;;;;1378.80;834.30;;;;;;;16.85;100.00;101024.52;223657;1264;140698;-87
2023/10/06 13:36:41;;;;;;;1598.40;851.80;;;;;;;16.81;100.00;100994.91;224281;1263;140110;-87
2023/10/06 13:42:38;;;;;;;;;;;;;;;;;;;;;
2023/10/06 13:48:40;;;;;;;1594.00;827.50;;;;;;;16.76;100.00;100974.77;224190;1263;139572;-90
2023/10/06 13:54:41;;;;;;;1628.00;848.30;;;;;;;16.74;100.00;100960.56;223718;1263;141667;-89
2023/10/06 14:06:52;;;;;;;1403.70;838.50;;;;;;;16.87;100.00;100956.75;224227;1263;139743;-89
2023/10/06 14:12:52;;;;;;;;;;;;;;;;;;;;;
2023/10/06 14:18:43;;;;;;;1419.50;831.60;;;;;;;16.94;100.00;100933.97;224198;1263;140301;-89
2023/10/06 14:24:34;;;;;;;1020.80;708.90;;;;;;;16.97;100.00;100914.42;223625;1263;140840;-89
2023/10/06 14:30:35;;;;;;;538.40;451.30;;;;;;;16.99;100.00;100903.12;223614;1263;141611;-89
2023/10/06 14:37:01;;;;;;;574.80;493.60;;;;;;;17.00;100.00;100901.85;224319;1263;139477;-92
2023/10/06 14:48:43;;;;;;;389.20;293.40;;;;;;;17.01;100.00;100879.66;224325;1263;139743;-87
2023/10/06 14:54:44;;;;;;;401.70;366.20;;;;;;;17.01;99.89;100868.30;223693;1263;141086;-89
2023/10/06 15:00:46;;;;;;;153.30;141.70;;;;;;;17.01;98.91;100850.27;223695;1263;141804;-89
2023/10/06 15:06:46;;;;;;;182.40;139.90;;;;;;;16.98;97.99;100837.98;224224;1263;139300;-86
2023/10/06 15:12:46;;;;;;;178.50;164.70;;;;;;;16.95;98.05;100828.95;223570;1263;140538;-89
2023/10/06 15:18:47;;;;;;;189.60;171.50;;;;;;;16.95;97.78;100825.14;224225;1263;139943;-89
2023/10/06 15:24:49;;;;;;;592.30;346.80;;;;;;;16.90;98.00;100810.49;223654;1263;140486;-90
2023/10/06 15:30:50;;;;;;;153.90;142.10;;;;;;;16.86;97.94;100805.52;223757;1263;140765;-89
2023/10/06 15:36:50;;;;;;;206.40;190.00;;;;;;;16.83;98.24;100801.26;224145;1263;139275;-88
2023/10/06 15:42:51;;;;;;;149.90;138.60;;;;;;;16.78;97.99;100795.73;223720;1263;141290;-89
2023/10/06 15:48:56;;;;;;;201.80;185.30;;;;;;;16.75;98.28;100803.63;224175;1265;139184;-87
2023/10/06 15:54:47;;;;;;;331.80;301.90;;;;;;;16.71;98.51;100803.58;223699;1263;141241;-87
2023/10/06 16:00:37;;;;;;;228.20;210.20;;;;;;;16.67;98.99;100787.16;223630;1263;140639;-90
2023/10/06 16:06:36;;;;;;;;;;;;;;;;;;;;;
2023/10/06 16:12:30;;;;;;;;;;;;;;;;;;;;;
2023/10/06 16:18:32;;;;;;;327.00;299.20;;;;;;;16.55;100.00;100758.05;224161;1263;139235;-89
2023/10/06 16:24:03;;;;;;;;;;;;;;;;;;;;;
2023/10/06 16:30:06;;;;;;;373.60;337.60;;;;;;;16.49;100.00;100753.02;224417;1263;139510;-87
2023/10/06 16:36:07;;;;;;;418.50;383.40;;;;;;;16.46;100.00;100762.16;224292;1263;139736;-90
2023/10/06 16:48:09;;;;;;;542.50;457.10;;;;;;;16.43;100.00;100749.02;224254;1263;139589;-88
2023/10/06 16:54:10;;;;;;;542.80;480.10;;;;;;;16.39;100.00;100744.17;223737;1263;140518;-89
2023/10/06 17:00:09;;;;;;;564.60;507.20;;;;;;;16.35;100.00;100750.70;223763;1263;140964;-86
2023/10/06 17:06:07;;;;;;;368.10;334.70;;;;;;;16.24;100.00;100762.21;224300;1263;139433;-87
2023/10/06 17:12:10;;;;;;;209.70;193.10;;;;;;;15.95;100.00;100752.55;223609;1263;140791;-86
2023/10/06 17:24:13;;;;;;;94.20;85.70;;;;;;;15.52;100.00;100732.94;223616;1263;140648;-87
2023/10/06 17:29:58;;;;;;;135.50;123.60;;;;;;;15.40;100.00;100733.79;223626;1263;140360;-89
2023/10/06 17:35:42;;;;;;;341.60;191.90;;;;;;;15.29;100.00;100732.44;224208;1265;140115;-87
2023/10/06 17:41:42;;;;;;;51.70;47.50;;;;;;;15.19;100.00;100729.46;223628;1263;141193;-87
2023/10/06 17:48:07;;;;;;;28.10;24.80;;;;;;;15.09;100.00;100718.16;224268;1265;142835;-88
2023/10/06 17:53:44;;;;;;;29.20;26.70;;;;;;;15.00;100.00;100716.19;223593;1263;140226;-86
2023/10/06 18:05:52;;;;;;;28.10;24.30;;;;;;;14.87;100.00;100692.08;224166;1263;139054;-87
2023/10/06 18:11:48;;;;;;;101.70;75.90;;;;;;;14.84;100.00;100682.27;223752;1263;140468;-88
2023/10/06 18:23:53;;;;;;;84.80;68.80;;;;;;;14.78;100.00;100657.41;223756;1263;140363;-89
2023/10/06 18:29:51;;;;;;;60.70;55.10;;;;;;;14.77;100.00;100647.05;224166;1263;139240;-89
2023/10/06 18:35:53;;;;;;;21.10;14.90;;;;;;;14.77;100.00;100640.73;224242;1266;139164;-90
2023/10/06 18:41:54;;;;;;;76.70;69.60;;;;;;;14.78;100.00;100632.33;223680;1266;140475;-87
2023/10/06 18:47:54;;;;;;;16.70;11.20;;;;;;;14.79;100.00;100623.15;224224;1263;139130;-89
2023/10/06 18:54:04;;;;;;;16.00;10.90;;;;;;;14.81;100.00;100613.39;223579;1266;140396;-88
2023/10/06 18:59:57;;;;;;;28.40;25.10;;;;;;;14.83;100.00;100598.98;224127;1263;139174;-88
2023/10/06 19:05:58;;;;;;;14.70;6.50;;;;;;;14.89;99.69;100589.06;224193;1265;139309;-89
2023/10/06 19:12:02;;;;;;;46.70;39.90;;;;;;;14.94;99.16;100588.11;223567;1263;140423;-91
2023/10/06 19:18:00;;;;;;;67.90;48.20;;;;;;;14.99;98.74;100588.70;224092;1266;139612;-89
2023/10/06 19:24:01;;;;;;;30.50;25.60;;;;;;;15.00;99.82;100590.83;223684;1263;140308;-88
2023/10/06 19:30:00;;;;;;;42.40;36.20;;;;;;;14.93;100.00;100577.71;224166;1264;139206;-89
2023/10/06 19:36:04;;;;;;;53.10;47.90;;;;;;;14.83;100.00;100569.14;224009;1267;242225;-88
2023/10/06 19:41:56;;;;;;;88.30;81.10;;;;;;;14.76;100.00;100561.56;223699;1263;140362;-87
2023/10/06 19:47:57;;;;;;;255.40;161.70;;;;;;;14.69;100.00;100554.06;224131;1264;139279;-87
2023/10/06 19:53:58;;;;;;;36.30;32.70;;;;;;;14.62;100.00;100541.75;223540;1263;140501;-87
2023/10/06 19:59:50;;;;;;;;;;;;;;;;;;;;;
2023/10/06 20:05:53;;;;;;;19.40;14.30;;;;;;;14.55;100.00;100526.19;224242;1263;139147;-88
2023/10/06 20:11:52;;;;;;;30.40;27.50;;;;;;;14.54;100.00;100520.41;223764;1267;141385;-87
2023/10/06 20:17:53;;;;;;;;;;;;;;;;;;;;;
2023/10/06 20:23:56;;;;;;;16.50;10.70;;;;;;;14.57;100.00;100514.46;223658;1263;141377;-84
2023/10/06 20:29:52;;;;;;;16.10;7.80;;;;;;;14.59;100.00;100507.41;224223;1263;139620;-85
2023/10/06 20:35:08;;;;;;;192.40;86.90;;;;;;;14.63;100.00;100504.48;220035;1263;389258;-87
2023/10/06 20:41:12;;;;;;;15.40;7.40;;;;;;;14.69;100.00;100502.23;223535;1263;141763;-84
2023/10/06 20:47:11;;;;;;;12.70;6.10;;;;;;;14.75;100.00;100504.56;224119;1263;139598;-85
2023/10/06 20:53:13;;;;;;;12.40;6.60;;;;;;;14.81;99.97;100499.16;223541;1264;139980;-85
2023/10/06 20:59:13;;;;;;;;;;;;;;;;;;;;;
2023/10/06 21:05:24;;;;;;;37.50;26.80;;;;;;;14.98;99.51;100487.73;223966;1263;139322;-84
2023/10/06 21:11:25;;;;;;;14.20;5.70;;;;;;;15.10;98.19;100477.30;223555;1263;140672;-85
2023/10/06 21:17:17;;;;;;;;;;;;;;;;;;;;;
2023/10/06 21:23:19;;;;;;;11.80;5.40;;;;;;;15.26;97.28;100447.95;223677;1267;140609;-86
2023/10/06 21:29:20;;;;;;;11.40;4.50;;;;;;;15.31;97.04;100455.13;224087;1267;139271;-85
2023/10/06 21:35:22;;;;;;;149.70;91.00;;;;;;;15.38;96.14;100444.96;223945;1264;139447;-84
2023/10/06 21:41:23;;;;;;;12.30;4.00;;;;;;;15.45;95.52;100436.98;223431;1266;140344;-88
2023/10/06 21:47:24;;;;;;;10.30;5.00;;;;;;;15.51;94.79;100436.21;224011;1263;138894;-86
2023/10/06 21:53:25;;;;;;;11.70;4.00;;;;;;;15.54;94.53;100436.10;223554;1266;140909;-86
2023/10/06 22:05:27;;;;;;;331.70;139.80;;;;;;;15.63;93.89;100430.31;223979;1263;387803;-83
2023/10/06 22:11:29;;;;;;;19.70;11.70;;;;;;;15.68;94.01;100424.55;223591;1263;140600;-87
2023/10/06 22:17:19;;;;;;;9.60;4.20;;;;;;;15.68;94.38;100431.45;224217;1263;139021;-86
2023/10/06 22:23:13;;;;;;;11.00;4.60;;;;;;;15.69;94.86;100438.34;223595;1264;139958;-86
2023/10/06 22:29:14;;;;;;;17.50;15.50;;;;;;;15.67;96.06;100427.02;224188;1263;138721;-85
2023/10/06 22:35:16;;;;;;;11.20;6.10;;;;;;;15.65;96.51;100410.79;223907;1267;139306;-86
2023/10/06 22:41:17;;;;;;;14.40;11.80;;;;;;;15.63;96.93;100386.80;223577;1266;140410;-87
2023/10/06 22:47:18;;;;;;;18.00;15.30;;;;;;;15.60;97.37;100383.73;224215;1263;139025;-85
2023/10/06 22:59:20;;;;;;;17.30;11.80;;;;;;;15.58;98.15;100361.40;224207;1263;138888;-87
2023/10/06 23:05:11;;;;;;;;;;;;;;;;;;;;;
2023/10/06 23:11:16;;;;;;;17.40;15.30;;;;;;;15.55;97.98;100344.39;223674;1263;139967;-87
2023/10/06 23:17:18;;;;;;;13.40;10.20;;;;;;;15.55;97.80;100344.63;224021;1263;138969;-87
2023/10/06 23:23:19;;;;;;;12.20;8.50;;;;;;;15.55;97.59;100339.80;223697;1263;140057;-85
2023/10/06 23:29:22;;;;;;;17.10;10.10;;;;;;;15.56;97.26;100332.48;224221;1263;138834;-85
2023/10/06 23:35:23;;;;;;;11.60;8.00;;;;;;;15.59;97.11;100326.61;224155;1267;225499;-85
2023/10/06 23:41:25;;;;;;;14.60;11.50;;;;;;;15.59;96.76;100313.12;223654;1267;140034;-87
2023/10/06 23:53:36;;;;;;;11.20;5.20;;;;;;;15.60;96.05;100285.13;223654;1263;139948;-87
2023/10/06 23:59:41;;;;;;;11.20;3.70;;;;;;;15.59;95.97;100279.04;224119;1263;138900;-85
